sensor_id;sensor_type;location;lat;lon;timestamp;P1;durP1;ratioP1;P2;durP2;ratioP2
11473;SDS011;5793;52.238;13.438;2023-12-14T00:01:30;20.70;;;13.30;;
11473;SDS011;5793;52.238;13.438;2023-12-14T00:03:58;17.50;;;12.00;;
11473;SDS011;5793;52.238;13.438;2023-12-14T00:06:25;17.67;;;11.37;;
11473;SDS011;5793;52.238;13.438;2023-12-14T00:08:53;18.53;;;11.97;;
11473;SDS011;5793;52.238;13.438;2023-12-14T00:11:21;14.30;;;10.83;;
11473;SDS011;5793;52.238;13.438;2023-12-14T00:13:50;14.60;;;10.40;;
11473;SDS011;5793;52.238;13.438;2023-12-14T00:16:18;16.80;;;10.37;;
11473;SDS011;5793;52.238;13.438;2023-12-14T00:18:46;15.70;;;10.30;;
11473;SDS011;5793;52.238;13.438;2023-12-14T00:21:13;12.90;;;9.77;;
11473;SDS011;5793;52.238;13.438;2023-12-14T00:23:41;14.90;;;10.47;;
11473;SDS011;5793;52.238;13.438;2023-12-14T00:26:09;13.53;;;10.03;;
11473;SDS011;5793;52.238;13.438;2023-12-14T00:28:37;14.53;;;11.07;;
11473;SDS011;5793;52.238;13.438;2023-12-14T00:31:06;12.50;;;9.40;;
11473;SDS011;5793;52.238;13.438;2023-12-14T00:33:34;14.93;;;10.33;;
11473;SDS011;5793;52.238;13.438;2023-12-14T00:36:02;15.33;;;10.33;;
11473;SDS011;5793;52.238;13.438;2023-12-14T00:38:31;12.23;;;9.97;;
11473;SDS011;5793;52.238;13.438;2023-12-14T00:40:59;17.30;;;11.40;;
11473;SDS011;5793;52.238;13.438;2023-12-14T00:43:27;16.33;;;10.73;;
11473;SDS011;5793;52.238;13.438;2023-12-14T00:45:54;14.63;;;10.33;;
11473;SDS011;5793;52.238;13.438;2023-12-14T00:48:23;16.53;;;10.23;;
11473;SDS011;5793;52.238;13.438;2023-12-14T00:50:51;14.43;;;10.57;;
11473;SDS011;5793;52.238;13.438;2023-12-14T00:53:19;14.10;;;10.23;;
11473;SDS011;5793;52.238;13.438;2023-12-14T00:55:47;13.93;;;9.63;;
11473;SDS011;5793;52.238;13.438;2023-12-14T00:58:15;16.57;;;10.80;;
11473;SDS011;5793;52.238;13.438;2023-12-14T01:00:43;16.77;;;9.93;;
11473;SDS011;5793;52.238;13.438;2023-12-14T01:03:10;16.03;;;10.57;;
11473;SDS011;5793;52.238;13.438;2023-12-14T01:05:40;12.23;;;9.37;;
11473;SDS011;5793;52.238;13.438;2023-12-14T01:08:08;13.10;;;9.70;;
11473;SDS011;5793;52.238;13.438;2023-12-14T01:10:36;24.53;;;10.80;;
11473;SDS011;5793;52.238;13.438;2023-12-14T01:13:04;17.30;;;10.83;;
11473;SDS011;5793;52.238;13.438;2023-12-14T01:15:31;16.70;;;9.77;;
11473;SDS011;5793;52.238;13.438;2023-12-14T01:17:59;13.80;;;9.97;;
11473;SDS011;5793;52.238;13.438;2023-12-14T01:20:27;14.87;;;9.93;;
11473;SDS011;5793;52.238;13.438;2023-12-14T01:22:56;14.77;;;9.60;;
11473;SDS011;5793;52.238;13.438;2023-12-14T01:25:24;13.30;;;9.83;;
11473;SDS011;5793;52.238;13.438;2023-12-14T01:27:52;16.33;;;10.80;;
11473;SDS011;5793;52.238;13.438;2023-12-14T01:30:20;15.53;;;10.80;;
11473;SDS011;5793;52.238;13.438;2023-12-14T01:32:48;15.67;;;10.73;;
11473;SDS011;5793;52.238;13.438;2023-12-14T01:35:16;16.47;;;11.13;;
11473;SDS011;5793;52.238;13.438;2023-12-14T01:37:44;16.93;;;11.77;;
11473;SDS011;5793;52.238;13.438;2023-12-14T01:40:13;16.07;;;11.87;;
11473;SDS011;5793;52.238;13.438;2023-12-14T01:42:41;18.23;;;12.27;;
11473;SDS011;5793;52.238;13.438;2023-12-14T01:45:09;17.33;;;11.73;;
11473;SDS011;5793;52.238;13.438;2023-12-14T01:47:37;19.10;;;12.23;;
11473;SDS011;5793;52.238;13.438;2023-12-14T01:50:05;17.70;;;12.50;;
11473;SDS011;5793;52.238;13.438;2023-12-14T01:52:33;18.20;;;12.50;;
11473;SDS011;5793;52.238;13.438;2023-12-14T01:55:02;20.20;;;12.80;;
11473;SDS011;5793;52.238;13.438;2023-12-14T01:57:32;21.83;;;12.57;;
11473;SDS011;5793;52.238;13.438;2023-12-14T02:00:00;20.70;;;13.63;;
11473;SDS011;5793;52.238;13.438;2023-12-14T02:02:28;21.43;;;14.03;;
11473;SDS011;5793;52.238;13.438;2023-12-14T02:04:56;19.33;;;12.90;;
11473;SDS011;5793;52.238;13.438;2023-12-14T02:07:24;22.70;;;14.40;;
11473;SDS011;5793;52.238;13.438;2023-12-14T02:09:52;18.93;;;13.80;;
11473;SDS011;5793;52.238;13.438;2023-12-14T02:12:20;22.20;;;13.53;;
11473;SDS011;5793;52.238;13.438;2023-12-14T02:14:49;18.20;;;13.17;;
11473;SDS011;5793;52.238;13.438;2023-12-14T02:17:17;19.67;;;13.43;;
11473;SDS011;5793;52.238;13.438;2023-12-14T02:19:45;23.53;;;14.30;;
11473;SDS011;5793;52.238;13.438;2023-12-14T02:22:13;24.13;;;13.93;;
11473;SDS011;5793;52.238;13.438;2023-12-14T02:24:42;21.33;;;13.47;;
11473;SDS011;5793;52.238;13.438;2023-12-14T02:27:10;20.93;;;13.47;;
11473;SDS011;5793;52.238;13.438;2023-12-14T02:29:37;25.03;;;14.03;;
11473;SDS011;5793;52.238;13.438;2023-12-14T02:32:06;23.47;;;13.80;;
11473;SDS011;5793;52.238;13.438;2023-12-14T02:34:34;20.43;;;13.70;;
11473;SDS011;5793;52.238;13.438;2023-12-14T02:37:02;22.47;;;14.00;;
11473;SDS011;5793;52.238;13.438;2023-12-14T02:39:30;21.73;;;14.10;;
11473;SDS011;5793;52.238;13.438;2023-12-14T02:41:59;23.40;;;12.87;;
11473;SDS011;5793;52.238;13.438;2023-12-14T02:44:27;21.93;;;13.40;;
11473;SDS011;5793;52.238;13.438;2023-12-14T02:46:55;20.37;;;12.87;;
11473;SDS011;5793;52.238;13.438;2023-12-14T02:49:22;19.57;;;13.13;;
11473;SDS011;5793;52.238;13.438;2023-12-14T02:51:50;22.13;;;14.63;;
11473;SDS011;5793;52.238;13.438;2023-12-14T02:54:18;27.70;;;14.60;;
11473;SDS011;5793;52.238;13.438;2023-12-14T02:56:46;24.40;;;13.57;;
11473;SDS011;5793;52.238;13.438;2023-12-14T02:59:15;22.87;;;13.37;;
11473;SDS011;5793;52.238;13.438;2023-12-14T03:01:43;26.10;;;13.90;;
11473;SDS011;5793;52.238;13.438;2023-12-14T03:04:11;26.07;;;14.63;;
11473;SDS011;5793;52.238;13.438;2023-12-14T03:06:39;23.57;;;13.97;;
11473;SDS011;5793;52.238;13.438;2023-12-14T03:09:07;28.10;;;14.17;;
11473;SDS011;5793;52.238;13.438;2023-12-14T03:11:34;24.80;;;13.10;;
11473;SDS011;5793;52.238;13.438;2023-12-14T03:14:02;22.23;;;13.23;;
11473;SDS011;5793;52.238;13.438;2023-12-14T03:16:32;21.97;;;12.83;;
11473;SDS011;5793;52.238;13.438;2023-12-14T03:19:01;19.40;;;12.20;;
11473;SDS011;5793;52.238;13.438;2023-12-14T03:21:29;23.77;;;13.13;;
11473;SDS011;5793;52.238;13.438;2023-12-14T03:23:57;22.13;;;12.50;;
11473;SDS011;5793;52.238;13.438;2023-12-14T03:26:25;20.37;;;12.50;;
11473;SDS011;5793;52.238;13.438;2023-12-14T03:28:53;19.83;;;11.97;;
11473;SDS011;5793;52.238;13.438;2023-12-14T03:31:21;20.47;;;12.10;;
11473;SDS011;5793;52.238;13.438;2023-12-14T03:33:50;20.37;;;11.23;;
11473;SDS011;5793;52.238;13.438;2023-12-14T03:36:18;19.03;;;11.20;;
11473;SDS011;5793;52.238;13.438;2023-12-14T03:38:46;21.50;;;11.57;;
11473;SDS011;5793;52.238;13.438;2023-12-14T03:41:13;20.77;;;11.40;;
11473;SDS011;5793;52.238;13.438;2023-12-14T03:43:41;18.03;;;11.10;;
11473;SDS011;5793;52.238;13.438;2023-12-14T03:46:09;22.70;;;11.53;;
11473;SDS011;5793;52.238;13.438;2023-12-14T03:48:37;19.10;;;11.13;;
11473;SDS011;5793;52.238;13.438;2023-12-14T03:51:07;20.90;;;11.53;;
11473;SDS011;5793;52.238;13.438;2023-12-14T03:53:34;19.90;;;11.50;;
11473;SDS011;5793;52.238;13.438;2023-12-14T03:56:02;21.23;;;12.20;;
11473;SDS011;5793;52.238;13.438;2023-12-14T03:58:31;21.47;;;11.67;;
11473;SDS011;5793;52.238;13.438;2023-12-14T04:00:59;19.00;;;10.70;;
11473;SDS011;5793;52.238;13.438;2023-12-14T04:03:27;20.07;;;12.43;;
11473;SDS011;5793;52.238;13.438;2023-12-14T04:05:55;21.57;;;12.10;;
11473;SDS011;5793;52.238;13.438;2023-12-14T04:08:24;23.30;;;12.17;;
11473;SDS011;5793;52.238;13.438;2023-12-14T04:10:52;22.07;;;11.90;;
11473;SDS011;5793;52.238;13.438;2023-12-14T04:13:19;23.07;;;11.70;;
11473;SDS011;5793;52.238;13.438;2023-12-14T04:15:47;23.83;;;12.50;;
11473;SDS011;5793;52.238;13.438;2023-12-14T04:18:15;21.20;;;11.57;;
11473;SDS011;5793;52.238;13.438;2023-12-14T04:20:43;19.30;;;11.13;;
11473;SDS011;5793;52.238;13.438;2023-12-14T04:23:11;17.43;;;10.83;;
11473;SDS011;5793;52.238;13.438;2023-12-14T04:25:40;18.00;;;11.07;;
11473;SDS011;5793;52.238;13.438;2023-12-14T04:28:08;19.23;;;11.10;;
11473;SDS011;5793;52.238;13.438;2023-12-14T04:30:35;19.13;;;10.83;;
11473;SDS011;5793;52.238;13.438;2023-12-14T04:33:02;21.23;;;11.17;;
11473;SDS011;5793;52.238;13.438;2023-12-14T04:35:30;18.40;;;10.20;;
11473;SDS011;5793;52.238;13.438;2023-12-14T04:38:02;16.30;;;9.83;;
11473;SDS011;5793;52.238;13.438;2023-12-14T04:40:30;16.20;;;10.30;;
11473;SDS011;5793;52.238;13.438;2023-12-14T04:43:00;18.03;;;10.10;;
11473;SDS011;5793;52.238;13.438;2023-12-14T04:45:28;17.53;;;10.23;;
11473;SDS011;5793;52.238;13.438;2023-12-14T04:47:56;18.03;;;10.40;;
11473;SDS011;5793;52.238;13.438;2023-12-14T04:50:24;18.10;;;10.50;;
11473;SDS011;5793;52.238;13.438;2023-12-14T04:52:52;16.73;;;9.60;;
11473;SDS011;5793;52.238;13.438;2023-12-14T04:55:20;17.77;;;10.67;;
11473;SDS011;5793;52.238;13.438;2023-12-14T04:57:48;17.37;;;10.00;;
11473;SDS011;5793;52.238;13.438;2023-12-14T05:00:17;16.97;;;9.90;;
11473;SDS011;5793;52.238;13.438;2023-12-14T05:02:48;17.40;;;10.60;;
11473;SDS011;5793;52.238;13.438;2023-12-14T05:05:16;20.20;;;10.90;;
11473;SDS011;5793;52.238;13.438;2023-12-14T05:07:44;17.83;;;10.23;;
11473;SDS011;5793;52.238;13.438;2023-12-14T05:10:12;19.43;;;10.30;;
11473;SDS011;5793;52.238;13.438;2023-12-14T05:12:40;18.40;;;11.30;;
11473;SDS011;5793;52.238;13.438;2023-12-14T05:15:08;20.10;;;11.10;;
11473;SDS011;5793;52.238;13.438;2023-12-14T05:17:38;19.10;;;10.63;;
11473;SDS011;5793;52.238;13.438;2023-12-14T05:20:07;15.67;;;9.90;;
11473;SDS011;5793;52.238;13.438;2023-12-14T05:22:36;27.30;;;11.97;;
11473;SDS011;5793;52.238;13.438;2023-12-14T05:25:04;19.43;;;11.03;;
11473;SDS011;5793;52.238;13.438;2023-12-14T05:27:32;19.27;;;10.70;;
11473;SDS011;5793;52.238;13.438;2023-12-14T05:30:00;16.93;;;10.07;;
11473;SDS011;5793;52.238;13.438;2023-12-14T05:32:29;18.57;;;10.97;;
11473;SDS011;5793;52.238;13.438;2023-12-14T05:34:58;20.47;;;10.90;;
11473;SDS011;5793;52.238;13.438;2023-12-14T05:37:26;21.00;;;10.80;;
11473;SDS011;5793;52.238;13.438;2023-12-14T05:39:54;20.10;;;11.13;;
11473;SDS011;5793;52.238;13.438;2023-12-14T05:42:22;19.43;;;10.90;;
11473;SDS011;5793;52.238;13.438;2023-12-14T05:44:50;17.87;;;10.87;;
11473;SDS011;5793;52.238;13.438;2023-12-14T05:47:17;21.73;;;10.57;;
11473;SDS011;5793;52.238;13.438;2023-12-14T05:49:45;18.53;;;11.07;;
11473;SDS011;5793;52.238;13.438;2023-12-14T05:52:15;17.37;;;10.07;;
11473;SDS011;5793;52.238;13.438;2023-12-14T05:54:42;17.30;;;10.37;;
11473;SDS011;5793;52.238;13.438;2023-12-14T05:57:11;17.80;;;9.63;;
11473;SDS011;5793;52.238;13.438;2023-12-14T05:59:39;14.83;;;9.70;;
11473;SDS011;5793;52.238;13.438;2023-12-14T06:02:08;15.90;;;9.40;;
11473;SDS011;5793;52.238;13.438;2023-12-14T06:04:38;15.20;;;10.23;;
11473;SDS011;5793;52.238;13.438;2023-12-14T06:07:09;18.37;;;9.73;;
11473;SDS011;5793;52.238;13.438;2023-12-14T06:09:40;17.87;;;10.23;;
11473;SDS011;5793;52.238;13.438;2023-12-14T06:12:08;15.90;;;9.80;;
11473;SDS011;5793;52.238;13.438;2023-12-14T06:14:35;17.37;;;9.83;;
11473;SDS011;5793;52.238;13.438;2023-12-14T06:17:03;13.63;;;9.13;;
11473;SDS011;5793;52.238;13.438;2023-12-14T06:19:31;17.33;;;9.60;;
11473;SDS011;5793;52.238;13.438;2023-12-14T06:21:59;15.23;;;8.70;;
11473;SDS011;5793;52.238;13.438;2023-12-14T06:24:27;18.50;;;9.13;;
11473;SDS011;5793;52.238;13.438;2023-12-14T06:26:56;17.40;;;9.43;;
11473;SDS011;5793;52.238;13.438;2023-12-14T06:29:24;15.53;;;8.70;;
11473;SDS011;5793;52.238;13.438;2023-12-14T06:31:51;14.73;;;8.90;;
11473;SDS011;5793;52.238;13.438;2023-12-14T06:34:19;14.60;;;8.93;;
11473;SDS011;5793;52.238;13.438;2023-12-14T06:36:47;12.17;;;8.50;;
11473;SDS011;5793;52.238;13.438;2023-12-14T06:39:15;13.23;;;7.87;;
11473;SDS011;5793;52.238;13.438;2023-12-14T06:41:45;12.73;;;8.70;;
11473;SDS011;5793;52.238;13.438;2023-12-14T06:44:15;12.97;;;8.70;;
11473;SDS011;5793;52.238;13.438;2023-12-14T06:46:43;16.33;;;8.43;;
11473;SDS011;5793;52.238;13.438;2023-12-14T06:49:11;15.23;;;8.60;;
11473;SDS011;5793;52.238;13.438;2023-12-14T06:51:39;11.60;;;8.00;;
11473;SDS011;5793;52.238;13.438;2023-12-14T06:54:07;14.90;;;9.17;;
11473;SDS011;5793;52.238;13.438;2023-12-14T06:56:35;12.27;;;8.37;;
11473;SDS011;5793;52.238;13.438;2023-12-14T06:59:03;15.00;;;9.23;;
11473;SDS011;5793;52.238;13.438;2023-12-14T07:01:32;11.97;;;8.57;;
11473;SDS011;5793;52.238;13.438;2023-12-14T07:04:00;14.90;;;8.90;;
11473;SDS011;5793;52.238;13.438;2023-12-14T07:06:29;12.10;;;8.63;;
11473;SDS011;5793;52.238;13.438;2023-12-14T07:08:57;13.10;;;8.53;;
11473;SDS011;5793;52.238;13.438;2023-12-14T07:11:25;16.23;;;8.80;;
11473;SDS011;5793;52.238;13.438;2023-12-14T07:13:52;14.07;;;8.70;;
11473;SDS011;5793;52.238;13.438;2023-12-14T07:16:20;12.30;;;7.80;;
11473;SDS011;5793;52.238;13.438;2023-12-14T07:18:49;11.57;;;8.17;;
11473;SDS011;5793;52.238;13.438;2023-12-14T07:21:17;12.20;;;8.13;;
11473;SDS011;5793;52.238;13.438;2023-12-14T07:23:45;12.10;;;8.83;;
11473;SDS011;5793;52.238;13.438;2023-12-14T07:26:13;10.60;;;7.83;;
11473;SDS011;5793;52.238;13.438;2023-12-14T07:28:41;11.73;;;7.87;;
11473;SDS011;5793;52.238;13.438;2023-12-14T07:31:09;12.73;;;7.93;;
11473;SDS011;5793;52.238;13.438;2023-12-14T07:33:37;12.60;;;8.17;;
11473;SDS011;5793;52.238;13.438;2023-12-14T07:36:06;10.50;;;8.17;;
11473;SDS011;5793;52.238;13.438;2023-12-14T07:38:34;11.73;;;8.30;;
11473;SDS011;5793;52.238;13.438;2023-12-14T07:41:02;9.90;;;6.93;;
11473;SDS011;5793;52.238;13.438;2023-12-14T07:43:30;12.03;;;8.73;;
11473;SDS011;5793;52.238;13.438;2023-12-14T07:45:58;9.97;;;7.90;;
11473;SDS011;5793;52.238;13.438;2023-12-14T07:48:26;13.43;;;7.87;;
11473;SDS011;5793;52.238;13.438;2023-12-14T07:50:55;11.87;;;8.60;;
11473;SDS011;5793;52.238;13.438;2023-12-14T07:53:24;11.30;;;7.73;;
11473;SDS011;5793;52.238;13.438;2023-12-14T07:55:53;13.50;;;9.20;;
11473;SDS011;5793;52.238;13.438;2023-12-14T07:58:20;13.43;;;8.90;;
11473;SDS011;5793;52.238;13.438;2023-12-14T08:00:48;12.50;;;9.23;;
11473;SDS011;5793;52.238;13.438;2023-12-14T08:03:16;11.70;;;8.40;;
11473;SDS011;5793;52.238;13.438;2023-12-14T08:05:44;12.77;;;8.90;;
11473;SDS011;5793;52.238;13.438;2023-12-14T08:08:12;13.50;;;9.20;;
11473;SDS011;5793;52.238;13.438;2023-12-14T08:10:41;13.87;;;9.07;;
11473;SDS011;5793;52.238;13.438;2023-12-14T08:13:09;13.17;;;9.57;;
11473;SDS011;5793;52.238;13.438;2023-12-14T08:15:37;14.23;;;9.10;;
11473;SDS011;5793;52.238;13.438;2023-12-14T08:18:05;14.93;;;10.30;;
11473;SDS011;5793;52.238;13.438;2023-12-14T08:20:34;17.27;;;9.90;;
11473;SDS011;5793;52.238;13.438;2023-12-14T08:23:01;15.20;;;10.20;;
11473;SDS011;5793;52.238;13.438;2023-12-14T08:25:29;11.30;;;9.30;;
11473;SDS011;5793;52.238;13.438;2023-12-14T08:27:58;15.03;;;10.37;;
11473;SDS011;5793;52.238;13.438;2023-12-14T08:30:30;12.73;;;10.07;;
11473;SDS011;5793;52.238;13.438;2023-12-14T08:32:58;13.23;;;10.10;;
11473;SDS011;5793;52.238;13.438;2023-12-14T08:35:26;14.00;;;9.70;;
11473;SDS011;5793;52.238;13.438;2023-12-14T08:37:54;14.17;;;9.73;;
11473;SDS011;5793;52.238;13.438;2023-12-14T08:40:22;13.73;;;9.70;;
11473;SDS011;5793;52.238;13.438;2023-12-14T08:42:50;14.23;;;10.13;;
11473;SDS011;5793;52.238;13.438;2023-12-14T08:45:19;17.90;;;12.07;;
11473;SDS011;5793;52.238;13.438;2023-12-14T08:47:47;14.17;;;11.00;;
11473;SDS011;5793;52.238;13.438;2023-12-14T08:50:15;15.57;;;11.83;;
11473;SDS011;5793;52.238;13.438;2023-12-14T08:52:43;17.57;;;12.27;;
11473;SDS011;5793;52.238;13.438;2023-12-14T08:55:11;19.17;;;12.03;;
11473;SDS011;5793;52.238;13.438;2023-12-14T08:57:39;17.70;;;12.33;;
11473;SDS011;5793;52.238;13.438;2023-12-14T09:00:07;16.47;;;12.40;;
11473;SDS011;5793;52.238;13.438;2023-12-14T09:02:37;21.70;;;14.43;;
11473;SDS011;5793;52.238;13.438;2023-12-14T09:05:06;18.50;;;13.50;;
11473;SDS011;5793;52.238;13.438;2023-12-14T09:07:34;20.33;;;13.87;;
11473;SDS011;5793;52.238;13.438;2023-12-14T09:10:02;20.77;;;13.77;;
11473;SDS011;5793;52.238;13.438;2023-12-14T09:12:30;24.47;;;15.10;;
11473;SDS011;5793;52.238;13.438;2023-12-14T09:14:58;20.27;;;14.13;;
11473;SDS011;5793;52.238;13.438;2023-12-14T09:17:26;20.70;;;14.43;;
11473;SDS011;5793;52.238;13.438;2023-12-14T09:20:04;23.63;;;14.97;;
11473;SDS011;5793;52.238;13.438;2023-12-14T09:22:34;25.07;;;15.40;;
11473;SDS011;5793;52.238;13.438;2023-12-14T09:25:02;23.83;;;15.77;;
11473;SDS011;5793;52.238;13.438;2023-12-14T09:27:30;20.90;;;14.73;;
11473;SDS011;5793;52.238;13.438;2023-12-14T09:29:59;22.83;;;15.67;;
11473;SDS011;5793;52.238;13.438;2023-12-14T09:32:26;25.07;;;16.50;;
11473;SDS011;5793;52.238;13.438;2023-12-14T09:34:54;25.53;;;16.43;;
11473;SDS011;5793;52.238;13.438;2023-12-14T09:37:24;24.80;;;17.03;;
11473;SDS011;5793;52.238;13.438;2023-12-14T09:39:52;27.60;;;16.80;;
11473;SDS011;5793;52.238;13.438;2023-12-14T09:42:20;23.93;;;16.17;;
11473;SDS011;5793;52.238;13.438;2023-12-14T09:44:49;22.47;;;15.47;;
11473;SDS011;5793;52.238;13.438;2023-12-14T09:47:17;23.03;;;15.27;;
11473;SDS011;5793;52.238;13.438;2023-12-14T09:49:45;24.53;;;15.50;;
11473;SDS011;5793;52.238;13.438;2023-12-14T09:52:16;20.97;;;14.67;;
11473;SDS011;5793;52.238;13.438;2023-12-14T09:54:45;21.23;;;14.87;;
11473;SDS011;5793;52.238;13.438;2023-12-14T09:57:13;22.33;;;15.30;;
11473;SDS011;5793;52.238;13.438;2023-12-14T09:59:41;22.10;;;14.33;;
11473;SDS011;5793;52.238;13.438;2023-12-14T10:02:17;17.87;;;13.20;;
11473;SDS011;5793;52.238;13.438;2023-12-14T10:04:46;20.90;;;15.17;;
11473;SDS011;5793;52.238;13.438;2023-12-14T10:07:14;19.23;;;13.73;;
11473;SDS011;5793;52.238;13.438;2023-12-14T10:09:43;22.03;;;15.37;;
11473;SDS011;5793;52.238;13.438;2023-12-14T10:12:12;19.53;;;14.20;;
11473;SDS011;5793;52.238;13.438;2023-12-14T10:14:40;20.17;;;15.10;;
11473;SDS011;5793;52.238;13.438;2023-12-14T10:17:13;22.33;;;15.50;;
11473;SDS011;5793;52.238;13.438;2023-12-14T10:19:44;19.80;;;13.37;;
11473;SDS011;5793;52.238;13.438;2023-12-14T10:22:13;20.83;;;14.17;;
11473;SDS011;5793;52.238;13.438;2023-12-14T10:24:42;19.27;;;13.80;;
11473;SDS011;5793;52.238;13.438;2023-12-14T10:27:10;19.27;;;13.30;;
11473;SDS011;5793;52.238;13.438;2023-12-14T10:29:41;21.93;;;14.40;;
11473;SDS011;5793;52.238;13.438;2023-12-14T10:32:11;19.20;;;13.97;;
11473;SDS011;5793;52.238;13.438;2023-12-14T10:34:39;20.73;;;14.60;;
11473;SDS011;5793;52.238;13.438;2023-12-14T10:37:08;20.40;;;15.00;;
11473;SDS011;5793;52.238;13.438;2023-12-14T10:39:37;19.97;;;14.23;;
11473;SDS011;5793;52.238;13.438;2023-12-14T10:42:06;18.37;;;13.43;;
11473;SDS011;5793;52.238;13.438;2023-12-14T10:44:47;24.47;;;14.77;;
11473;SDS011;5793;52.238;13.438;2023-12-14T10:47:21;19.80;;;15.03;;
11473;SDS011;5793;52.238;13.438;2023-12-14T10:49:50;20.60;;;15.27;;
11473;SDS011;5793;52.238;13.438;2023-12-14T10:52:18;21.67;;;14.80;;
11473;SDS011;5793;52.238;13.438;2023-12-14T10:54:49;21.53;;;14.43;;
11473;SDS011;5793;52.238;13.438;2023-12-14T10:57:20;21.43;;;14.93;;
11473;SDS011;5793;52.238;13.438;2023-12-14T10:59:50;19.43;;;13.80;;
11473;SDS011;5793;52.238;13.438;2023-12-14T11:02:25;21.57;;;14.80;;
11473;SDS011;5793;52.238;13.438;2023-12-14T11:04:56;22.27;;;16.20;;
11473;SDS011;5793;52.238;13.438;2023-12-14T11:07:44;20.50;;;15.33;;
11473;SDS011;5793;52.238;13.438;2023-12-14T11:10:13;24.13;;;16.00;;
11473;SDS011;5793;52.238;13.438;2023-12-14T11:12:51;25.23;;;16.10;;
11473;SDS011;5793;52.238;13.438;2023-12-14T11:15:25;21.33;;;15.17;;
11473;SDS011;5793;52.238;13.438;2023-12-14T11:20:55;23.77;;;17.37;;
11473;SDS011;5793;52.238;13.438;2023-12-14T11:23:29;26.80;;;18.57;;
11473;SDS011;5793;52.238;13.438;2023-12-14T11:25:59;24.73;;;17.50;;
11473;SDS011;5793;52.238;13.438;2023-12-14T11:28:31;27.33;;;17.93;;
11473;SDS011;5793;52.238;13.438;2023-12-14T11:31:01;22.10;;;16.03;;
11473;SDS011;5793;52.238;13.438;2023-12-14T11:33:33;25.30;;;17.33;;
11473;SDS011;5793;52.238;13.438;2023-12-14T11:36:08;28.20;;;18.27;;
11473;SDS011;5793;52.238;13.438;2023-12-14T11:38:38;29.83;;;19.13;;
11473;SDS011;5793;52.238;13.438;2023-12-14T11:41:05;25.40;;;17.47;;
11473;SDS011;5793;52.238;13.438;2023-12-14T11:43:38;27.00;;;18.27;;
11473;SDS011;5793;52.238;13.438;2023-12-14T11:46:08;29.13;;;18.50;;
11473;SDS011;5793;52.238;13.438;2023-12-14T11:48:36;26.70;;;18.07;;
11473;SDS011;5793;52.238;13.438;2023-12-14T11:51:05;29.87;;;19.53;;
11473;SDS011;5793;52.238;13.438;2023-12-14T11:53:33;27.10;;;18.17;;
11473;SDS011;5793;52.238;13.438;2023-12-14T11:56:05;25.97;;;17.10;;
11473;SDS011;5793;52.238;13.438;2023-12-14T11:58:33;28.83;;;17.40;;
11473;SDS011;5793;52.238;13.438;2023-12-14T12:01:13;22.37;;;16.10;;
11473;SDS011;5793;52.238;13.438;2023-12-14T12:03:42;21.57;;;16.30;;
11473;SDS011;5793;52.238;13.438;2023-12-14T12:06:19;24.47;;;15.97;;
11473;SDS011;5793;52.238;13.438;2023-12-14T12:08:48;24.07;;;16.80;;
11473;SDS011;5793;52.238;13.438;2023-12-14T12:11:16;26.33;;;17.43;;
11473;SDS011;5793;52.238;13.438;2023-12-14T12:13:49;23.63;;;17.70;;
11473;SDS011;5793;52.238;13.438;2023-12-14T12:16:19;25.43;;;16.30;;
11473;SDS011;5793;52.238;13.438;2023-12-14T12:18:47;26.90;;;17.17;;
11473;SDS011;5793;52.238;13.438;2023-12-14T12:21:17;21.20;;;15.73;;
11473;SDS011;5793;52.238;13.438;2023-12-14T12:23:45;26.07;;;16.50;;
11473;SDS011;5793;52.238;13.438;2023-12-14T12:26:13;22.47;;;15.93;;
11473;SDS011;5793;52.238;13.438;2023-12-14T12:28:41;24.03;;;16.63;;
11473;SDS011;5793;52.238;13.438;2023-12-14T12:31:09;23.13;;;16.90;;
11473;SDS011;5793;52.238;13.438;2023-12-14T12:33:38;25.57;;;17.33;;
11473;SDS011;5793;52.238;13.438;2023-12-14T12:36:06;25.20;;;16.77;;
11473;SDS011;5793;52.238;13.438;2023-12-14T12:38:34;25.57;;;16.90;;
11473;SDS011;5793;52.238;13.438;2023-12-14T12:41:06;29.10;;;17.60;;
11473;SDS011;5793;52.238;13.438;2023-12-14T12:43:34;30.00;;;18.03;;
11473;SDS011;5793;52.238;13.438;2023-12-14T12:46:02;28.33;;;18.70;;
11473;SDS011;5793;52.238;13.438;2023-12-14T12:48:30;23.47;;;16.30;;
11473;SDS011;5793;52.238;13.438;2023-12-14T12:51:00;23.80;;;15.87;;
11473;SDS011;5793;52.238;13.438;2023-12-14T12:53:28;20.97;;;15.30;;
11473;SDS011;5793;52.238;13.438;2023-12-14T12:55:55;21.83;;;15.47;;
11473;SDS011;5793;52.238;13.438;2023-12-14T12:58:23;19.20;;;14.77;;
11473;SDS011;5793;52.238;13.438;2023-12-14T13:00:51;21.07;;;15.60;;
11473;SDS011;5793;52.238;13.438;2023-12-14T13:03:19;22.57;;;15.57;;
11473;SDS011;5793;52.238;13.438;2023-12-14T13:05:47;26.73;;;16.60;;
11473;SDS011;5793;52.238;13.438;2023-12-14T13:08:16;23.67;;;17.07;;
11473;SDS011;5793;52.238;13.438;2023-12-14T13:10:44;24.60;;;17.87;;
11473;SDS011;5793;52.238;13.438;2023-12-14T13:13:16;27.37;;;18.27;;
11473;SDS011;5793;52.238;13.438;2023-12-14T13:15:45;30.07;;;22.23;;
11473;SDS011;5793;52.238;13.438;2023-12-14T13:18:13;27.00;;;19.27;;
11473;SDS011;5793;52.238;13.438;2023-12-14T13:20:43;27.37;;;19.67;;
11473;SDS011;5793;52.238;13.438;2023-12-14T13:23:10;27.53;;;19.57;;
11473;SDS011;5793;52.238;13.438;2023-12-14T13:25:40;29.60;;;20.97;;
11473;SDS011;5793;52.238;13.438;2023-12-14T13:28:08;26.23;;;19.60;;
11473;SDS011;5793;52.238;13.438;2023-12-14T13:30:39;30.57;;;19.93;;
11473;SDS011;5793;52.238;13.438;2023-12-14T13:33:07;28.80;;;20.30;;
11473;SDS011;5793;52.238;13.438;2023-12-14T13:35:38;29.57;;;21.27;;
11473;SDS011;5793;52.238;13.438;2023-12-14T13:38:05;27.97;;;20.10;;
11473;SDS011;5793;52.238;13.438;2023-12-14T13:40:33;28.00;;;19.83;;
11473;SDS011;5793;52.238;13.438;2023-12-14T13:43:02;27.13;;;19.23;;
11473;SDS011;5793;52.238;13.438;2023-12-14T13:45:36;28.30;;;20.03;;
11473;SDS011;5793;52.238;13.438;2023-12-14T13:48:04;30.33;;;19.67;;
11473;SDS011;5793;52.238;13.438;2023-12-14T13:50:34;28.10;;;19.47;;
11473;SDS011;5793;52.238;13.438;2023-12-14T13:53:02;28.60;;;19.30;;
11473;SDS011;5793;52.238;13.438;2023-12-14T13:55:31;26.80;;;19.00;;
11473;SDS011;5793;52.238;13.438;2023-12-14T13:57:58;30.33;;;20.23;;
11473;SDS011;5793;52.238;13.438;2023-12-14T14:00:28;26.57;;;19.33;;
11473;SDS011;5793;52.238;13.438;2023-12-14T14:02:57;26.30;;;17.93;;
11473;SDS011;5793;52.238;13.438;2023-12-14T14:05:24;27.37;;;18.53;;
11473;SDS011;5793;52.238;13.438;2023-12-14T14:07:53;26.13;;;19.23;;
11473;SDS011;5793;52.238;13.438;2023-12-14T14:10:20;27.00;;;18.83;;
11473;SDS011;5793;52.238;13.438;2023-12-14T14:12:48;22.47;;;16.93;;
11473;SDS011;5793;52.238;13.438;2023-12-14T14:15:17;23.83;;;17.13;;
11473;SDS011;5793;52.238;13.438;2023-12-14T14:17:47;26.10;;;17.47;;
11473;SDS011;5793;52.238;13.438;2023-12-14T14:20:18;22.60;;;17.57;;
11473;SDS011;5793;52.238;13.438;2023-12-14T14:22:46;23.50;;;17.50;;
11473;SDS011;5793;52.238;13.438;2023-12-14T14:25:14;26.17;;;19.03;;
11473;SDS011;5793;52.238;13.438;2023-12-14T14:27:41;26.03;;;17.57;;
11473;SDS011;5793;52.238;13.438;2023-12-14T14:30:13;25.33;;;17.33;;
11473;SDS011;5793;52.238;13.438;2023-12-14T14:32:42;24.13;;;17.93;;
11473;SDS011;5793;52.238;13.438;2023-12-14T14:35:13;25.37;;;17.70;;